Time;durP1;ratioP1;P1;durP2;ratioP2;P2;SDS_P1;SDS_P2;PMS_P1;PMS_P2;Temp;Humidity;BMP_temperature;BMP_pressure;BME280_temperature;BME280_humidity;BME280_pressure;Samples;Min_cycle;Max_cycle;Signal;HPM_P1;HPM_P2
2022/01/15 00:00:30;;;;;;;73.03;20.15;;;;;;;;;;5005655;28;20079;-65
2022/01/15 00:02:55;;;;;;;79.55;19.95;;;;;;;;;;5007914;28;20033;-65
2022/01/15 00:05:21;;;;;;;69.82;19.90;;;;;;;;;;5031223;23;20406;-68
2022/01/15 00:07:48;;;;;;;54.50;15.45;;;;;;;;;;5025803;28;20082;-68
2022/01/15 00:10:14;;;;;;;74.55;20.60;;;;;;;;;;5026630;28;20025;-68
2022/01/15 00:12:40;;;;;;;89.53;24.77;;;;;;;;;;5027465;28;20033;-68
2022/01/15 00:15:12;;;;;;;71.90;20.63;;;;;;;;;;5028179;28;20025;-68
2022/01/15 00:17:56;;;;;;;74.93;19.73;;;;;;;;;;5013895;28;20029;-68
2022/01/15 00:20:23;;;;;;;73.65;20.27;;;;;;;;;;5008961;28;20029;-68
2022/01/15 00:22:49;;;;;;;71.43;16.85;;;;;;;;;;5006083;28;20025;-68
2022/01/15 00:25:14;;;;;;;48.65;15.13;;;;;;;;;;5006585;28;20041;-68
2022/01/15 00:27:40;;;;;;;51.22;15.02;;;;;;;;;;5006119;28;20447;-68
2022/01/15 00:30:05;;;;;;;51.47;16.80;;;;;;;;;;5007519;28;20038;-68
2022/01/15 00:32:31;;;;;;;65.25;19.20;;;;;;;;;;5009117;28;20112;-67
2022/01/15 00:34:57;;;;;;;75.75;20.30;;;;;;;;;;5007936;28;20109;-68
2022/01/15 00:37:22;;;;;;;78.53;21.77;;;;;;;;;;5008196;28;20467;-67
2022/01/15 00:39:47;;;;;;;78.60;21.92;;;;;;;;;;5007219;28;20033;-67
2022/01/15 00:42:13;;;;;;;70.43;21.85;;;;;;;;;;5008412;28;20045;-68
2022/01/15 00:44:41;;;;;;;79.90;21.42;;;;;;;;;;5007931;28;20041;-68
2022/01/15 00:47:06;;;;;;;91.28;21.95;;;;;;;;;;5002155;28;20076;-67
2022/01/15 00:49:31;;;;;;;88.13;21.42;;;;;;;;;;5007705;28;20026;-67
2022/01/15 00:51:56;;;;;;;88.13;23.35;;;;;;;;;;5008036;28;20156;-67
2022/01/15 00:54:21;;;;;;;87.22;22.23;;;;;;;;;;5010099;28;20029;-68
2022/01/15 00:56:47;;;;;;;87.30;20.63;;;;;;;;;;5007616;28;20103;-67
2022/01/15 00:59:14;;;;;;;79.03;21.25;;;;;;;;;;5006856;28;20855;-68
2022/01/15 01:01:39;;;;;;;71.60;19.88;;;;;;;;;;5006230;28;20018;-68
2022/01/15 01:04:04;;;;;;;74.95;19.42;;;;;;;;;;5007576;28;20029;-67
2022/01/15 01:06:29;;;;;;;62.08;16.85;;;;;;;;;;5013025;28;20084;-68
2022/01/15 01:08:55;;;;;;;63.90;17.98;;;;;;;;;;5011859;28;20025;-68
2022/01/15 01:11:30;;;;;;;60.95;16.80;;;;;;;;;;5019014;28;20036;-68
2022/01/15 01:24:22;;;;;;;48.85;15.52;;;;;;;;;;5010755;28;20025;-68
2022/01/15 01:27:01;;;;;;;51.88;15.35;;;;;;;;;;5012150;28;20029;-68
2022/01/15 01:35:09;;;;;;;32.33;11.93;;;;;;;;;;5009798;28;20061;-68
2022/01/15 01:37:39;;;;;;;49.33;14.45;;;;;;;;;;5008090;28;20022;-68
2022/01/15 01:40:27;;;;;;;33.30;10.98;;;;;;;;;;5010691;28;20045;-68
2022/01/15 01:43:02;;;;;;;46.80;12.98;;;;;;;;;;5007205;28;20025;-68
2022/01/15 01:45:28;;;;;;;47.75;16.98;;;;;;;;;;5011894;28;20467;-68
2022/01/15 01:47:53;;;;;;;47.30;15.25;;;;;;;;;;5017233;28;20079;-69
2022/01/15 01:50:21;;;;;;;41.83;13.23;;;;;;;;;;5010771;28;20021;-68
2022/01/15 01:52:47;;;;;;;44.50;13.82;;;;;;;;;;5011083;28;20297;-68
2022/01/15 01:55:13;;;;;;;44.55;14.45;;;;;;;;;;5009837;28;20022;-68
2022/01/15 01:57:39;;;;;;;46.15;14.27;;;;;;;;;;5012921;28;20037;-68
2022/01/15 02:00:05;;;;;;;37.35;12.63;;;;;;;;;;5012004;28;20046;-68
2022/01/15 02:02:31;;;;;;;39.40;11.98;;;;;;;;;;5011572;28;20018;-69
2022/01/15 02:04:57;;;;;;;33.10;11.63;;;;;;;;;;5011154;28;20053;-68
2022/01/15 02:07:22;;;;;;;36.50;13.30;;;;;;;;;;5012375;28;20778;-68
2022/01/15 02:09:47;;;;;;;37.38;11.68;;;;;;;;;;5014949;28;20454;-68
2022/01/15 02:12:12;;;;;;;50.22;13.55;;;;;;;;;;5013401;28;20036;-69
2022/01/15 02:14:37;;;;;;;41.60;13.77;;;;;;;;;;5010706;28;20026;-69
2022/01/15 02:17:03;;;;;;;45.83;12.40;;;;;;;;;;5009828;28;20022;-68
2022/01/15 02:19:31;;;;;;;35.15;12.07;;;;;;;;;;5011117;28;20032;-68
2022/01/15 02:24:41;;;;;;;13.52;4.75;;;;;;;;;;5011778;28;20029;-68
2022/01/15 02:27:06;;;;;;;25.33;7.80;;;;;;;;;;5012800;28;20021;-68
2022/01/15 02:29:31;;;;;;;36.45;10.18;;;;;;;;;;5010619;28;20026;-67
2022/01/15 02:31:56;;;;;;;32.67;11.32;;;;;;;;;;5009967;28;20018;-68
2022/01/15 02:34:21;;;;;;;33.55;10.68;;;;;;;;;;5012028;28;20422;-68
2022/01/15 02:36:46;;;;;;;24.73;8.38;;;;;;;;;;5010564;28;20097;-68
2022/01/15 02:39:12;;;;;;;12.35;3.78;;;;;;;;;;5013742;28;20109;-68
2022/01/15 02:41:38;;;;;;;13.77;7.03;;;;;;;;;;5010558;28;20336;-67
2022/01/15 02:44:05;;;;;;;23.67;9.00;;;;;;;;;;5019774;28;20500;-68
2022/01/15 02:48:57;;;;;;;23.75;8.55;;;;;;;;;;5006973;28;20025;-67
2022/01/15 02:51:24;;;;;;;31.75;9.98;;;;;;;;;;5008039;28;20410;-68
2022/01/15 02:53:54;;;;;;;13.98;5.18;;;;;;;;;;5013499;28;20100;-68
2022/01/15 02:56:21;;;;;;;15.95;6.88;;;;;;;;;;5007316;28;20029;-68
2022/01/15 02:58:46;;;;;;;34.10;11.27;;;;;;;;;;5008933;28;20022;-68
2022/01/15 03:01:11;;;;;;;25.92;8.80;;;;;;;;;;5008235;28;20061;-68
2022/01/15 03:03:36;;;;;;;34.20;10.27;;;;;;;;;;5010678;28;20029;-68
2022/01/15 03:06:02;;;;;;;28.88;9.23;;;;;;;;;;5010458;28;20498;-68
2022/01/15 03:08:28;;;;;;;13.13;5.10;;;;;;;;;;5013762;28;20029;-68
2022/01/15 03:10:53;;;;;;;36.35;12.13;;;;;;;;;;5009930;28;20041;-68
2022/01/15 03:13:19;;;;;;;36.83;11.77;;;;;;;;;;5008228;28;20041;-69
2022/01/15 03:15:44;;;;;;;36.63;12.25;;;;;;;;;;5011629;28;20344;-68
2022/01/15 03:18:09;;;;;;;26.23;8.68;;;;;;;;;;5005265;28;20025;-68
2022/01/15 03:20:35;;;;;;;20.30;8.88;;;;;;;;;;5007029;28;20026;-68
2022/01/15 03:23:00;;;;;;;17.10;5.63;;;;;;;;;;5002734;28;20328;-68
2022/01/15 03:25:25;;;;;;;24.83;8.30;;;;;;;;;;5009144;28;20426;-69
2022/01/15 03:27:50;;;;;;;15.50;6.78;;;;;;;;;;5008341;28;21191;-68
2022/01/15 03:30:15;;;;;;;15.05;5.68;;;;;;;;;;5009437;28;20576;-69
2022/01/15 03:32:44;;;;;;;33.15;11.15;;;;;;;;;;5010280;28;20038;-68
2022/01/15 03:35:12;;;;;;;28.05;9.40;;;;;;;;;;5010417;28;20057;-68
2022/01/15 03:37:38;;;;;;;23.23;9.13;;;;;;;;;;5011465;28;20088;-68
2022/01/15 03:40:03;;;;;;;37.67;11.95;;;;;;;;;;5010227;28;20478;-68
2022/01/15 03:42:29;;;;;;;28.42;9.52;;;;;;;;;;5010607;28;20172;-68
2022/01/15 03:44:54;;;;;;;31.38;12.85;;;;;;;;;;5010242;28;20478;-68
2022/01/15 03:47:19;;;;;;;9.35;4.25;;;;;;;;;;5010219;28;20026;-67
2022/01/15 03:49:45;;;;;;;29.70;11.80;;;;;;;;;;5010544;28;20512;-68
2022/01/15 03:52:10;;;;;;;33.88;11.60;;;;;;;;;;5009647;28;20521;-68
2022/01/15 03:54:36;;;;;;;35.42;12.13;;;;;;;;;;5010016;28;20378;-68
2022/01/15 03:57:02;;;;;;;26.30;7.40;;;;;;;;;;5009047;28;20029;-68
2022/01/15 03:59:27;;;;;;;18.15;8.15;;;;;;;;;;5017881;28;20032;-68
2022/01/15 04:01:52;;;;;;;34.40;13.23;;;;;;;;;;5014048;28;20032;-68
2022/01/15 04:04:18;;;;;;;25.35;9.20;;;;;;;;;;5009210;28;20132;-68
2022/01/15 04:06:44;;;;;;;17.25;6.75;;;;;;;;;;5013459;28;20033;-68
2022/01/15 04:09:10;;;;;;;22.02;6.95;;;;;;;;;;5010440;28;20029;-68
2022/01/15 04:11:35;;;;;;;24.17;8.27;;;;;;;;;;5016195;28;20058;-68
2022/01/15 04:14:00;;;;;;;29.42;10.52;;;;;;;;;;5010205;28;20493;-68
2022/01/15 04:16:26;;;;;;;23.75;8.82;;;;;;;;;;5022896;28;20033;-68
2022/01/15 04:18:52;;;;;;;23.08;7.90;;;;;;;;;;5012053;28;20029;-68
2022/01/15 04:21:17;;;;;;;17.58;7.15;;;;;;;;;;5011903;28;20029;-68
2022/01/15 04:23:42;;;;;;;16.52;5.50;;;;;;;;;;5003984;28;20422;-68
2022/01/15 04:26:07;;;;;;;50.35;14.43;;;;;;;;;;5007587;28;20030;-68
2022/01/15 04:28:34;;;;;;;40.53;12.18;;;;;;;;;;5013894;28;20057;-68
2022/01/15 04:31:05;;;;;;;35.30;11.13;;;;;;;;;;5011191;28;20018;-68
2022/01/15 04:33:34;;;;;;;44.50;14.38;;;;;;;;;;5009993;28;20386;-68
2022/01/15 04:35:59;;;;;;;20.35;7.32;;;;;;;;;;5010087;28;20112;-68
2022/01/15 04:38:25;;;;;;;9.63;3.03;;;;;;;;;;5012112;28;20101;-68
2022/01/15 04:40:50;;;;;;;23.70;10.07;;;;;;;;;;5010584;28;21038;-68
2022/01/15 04:43:15;;;;;;;15.73;7.47;;;;;;;;;;5019320;28;20040;-68
2022/01/15 04:45:40;;;;;;;8.90;5.38;;;;;;;;;;5023461;28;20060;-68
2022/01/15 04:48:05;;;;;;;21.85;7.97;;;;;;;;;;5012303;28;20309;-68
2022/01/15 04:50:30;;;;;;;28.58;8.85;;;;;;;;;;5017573;28;20433;-69
2022/01/15 04:52:56;;;;;;;19.30;6.78;;;;;;;;;;5017487;28;20024;-68
2022/01/15 04:55:21;;;;;;;16.30;6.95;;;;;;;;;;5012792;28;20782;-68
2022/01/15 04:57:46;;;;;;;19.77;9.07;;;;;;;;;;5014757;28;20039;-68
2022/01/15 05:00:14;;;;;;;18.77;7.55;;;;;;;;;;5014393;28;20287;-69
2022/01/15 05:02:39;;;;;;;26.67;9.40;;;;;;;;;;5013070;28;20026;-69
2022/01/15 05:05:04;;;;;;;16.25;7.05;;;;;;;;;;5012337;28;20018;-68
2022/01/15 05:07:29;;;;;;;22.20;8.00;;;;;;;;;;5012257;28;20033;-69
2022/01/15 05:09:55;;;;;;;31.08;9.70;;;;;;;;;;5012087;28;20036;-68
2022/01/15 05:12:39;;;;;;;28.27;9.90;;;;;;;;;;5012680;28;20419;-68
2022/01/15 05:15:04;;;;;;;32.85;11.55;;;;;;;;;;5011878;28;20021;-68
2022/01/15 05:17:29;;;;;;;36.42;12.95;;;;;;;;;;5012101;28;20410;-68
2022/01/15 05:19:54;;;;;;;24.25;8.45;;;;;;;;;;5013185;28;20026;-68
2022/01/15 05:22:20;;;;;;;42.00;12.88;;;;;;;;;;5013046;28;20025;-68
2022/01/15 05:24:45;;;;;;;19.10;5.68;;;;;;;;;;5013001;28;20097;-68
2022/01/15 05:27:10;;;;;;;25.55;8.13;;;;;;;;;;5012653;28;20049;-68
2022/01/15 05:29:35;;;;;;;18.60;7.60;;;;;;;;;;5021140;28;20076;-68
2022/01/15 05:32:00;;;;;;;42.67;13.77;;;;;;;;;;5011913;28;20076;-68
2022/01/15 05:34:26;;;;;;;47.80;14.65;;;;;;;;;;5009535;28;20029;-67
2022/01/15 05:36:51;;;;;;;42.08;13.32;;;;;;;;;;5007984;28;20022;-68
2022/01/15 05:39:16;;;;;;;23.35;9.13;;;;;;;;;;5011303;28;20044;-68
2022/01/15 05:41:41;;;;;;;28.38;8.98;;;;;;;;;;5012802;28;20033;-68
2022/01/15 05:44:06;;;;;;;14.77;5.60;;;;;;;;;;5017046;28;20021;-68
2022/01/15 05:46:33;;;;;;;32.28;10.10;;;;;;;;;;5010824;28;20060;-68
2022/01/15 05:48:59;;;;;;;37.95;12.90;;;;;;;;;;5013101;28;20022;-68
2022/01/15 05:51:29;;;;;;;23.80;9.05;;;;;;;;;;5011510;28;20014;-68
2022/01/15 05:53:54;;;;;;;32.97;12.23;;;;;;;;;;5010922;28;20018;-68
2022/01/15 05:56:19;;;;;;;35.63;13.00;;;;;;;;;;5011409;28;20497;-68
2022/01/15 05:58:44;;;;;;;27.38;9.93;;;;;;;;;;5015940;28;20026;-68
2022/01/15 06:01:10;;;;;;;29.80;11.02;;;;;;;;;;5010238;28;20017;-68
2022/01/15 06:03:35;;;;;;;43.03;14.77;;;;;;;;;;5015280;28;20029;-68
2022/01/15 06:06:02;;;;;;;23.23;9.55;;;;;;;;;;5011346;28;20033;-68
2022/01/15 06:08:27;;;;;;;37.17;13.40;;;;;;;;;;5011618;28;20027;-69
2022/01/15 06:10:52;;;;;;;38.42;13.10;;;;;;;;;;5010513;28;20105;-68
2022/01/15 06:13:17;;;;;;;36.28;12.73;;;;;;;;;;5010668;28;20030;-68
2022/01/15 06:15:43;;;;;;;19.33;6.25;;;;;;;;;;5009928;28;20497;-68
2022/01/15 06:18:08;;;;;;;22.45;9.27;;;;;;;;;;5012873;28;20032;-68
2022/01/15 06:20:33;;;;;;;26.92;8.98;;;;;;;;;;5008496;28;20111;-68
2022/01/15 06:22:58;;;;;;;22.20;7.45;;;;;;;;;;5010465;28;20134;-68
2022/01/15 06:25:24;;;;;;;19.17;8.07;;;;;;;;;;5009583;28;20027;-68
2022/01/15 06:27:49;;;;;;;32.53;13.38;;;;;;;;;;5010432;28;20029;-68
2022/01/15 06:30:14;;;;;;;18.38;7.55;;;;;;;;;;5010593;28;20060;-68
2022/01/15 06:32:39;;;;;;;27.35;10.13;;;;;;;;;;5013836;28;20017;-68
2022/01/15 06:35:12;;;;;;;23.50;10.93;;;;;;;;;;5010676;28;20041;-68
2022/01/15 06:37:37;;;;;;;26.92;12.07;;;;;;;;;;5016496;28;20088;-68
2022/01/15 06:40:03;;;;;;;15.10;7.72;;;;;;;;;;5010487;28;20239;-68
2022/01/15 06:42:29;;;;;;;14.05;6.18;;;;;;;;;;5011336;28;21251;-68
2022/01/15 06:44:54;;;;;;;8.27;3.97;;;;;;;;;;5011970;28;20017;-68
2022/01/15 06:47:20;;;;;;;21.88;9.32;;;;;;;;;;5008565;28;20332;-68
2022/01/15 06:49:45;;;;;;;8.68;4.10;;;;;;;;;;5009236;28;20029;-69
2022/01/15 06:52:10;;;;;;;16.58;8.05;;;;;;;;;;5014535;28;20047;-68
2022/01/15 06:54:35;;;;;;;19.55;7.90;;;;;;;;;;5013398;28;20024;-68
2022/01/15 06:57:00;;;;;;;9.32;4.75;;;;;;;;;;5009693;28;20022;-68
2022/01/15 06:59:25;;;;;;;25.85;10.93;;;;;;;;;;5008870;28;20069;-68
2022/01/15 07:01:51;;;;;;;22.35;9.23;;;;;;;;;;5006491;28;20053;-68
2022/01/15 07:04:16;;;;;;;13.90;6.15;;;;;;;;;;5008615;28;20022;-68
2022/01/15 07:06:41;;;;;;;20.30;9.88;;;;;;;;;;5008134;28;20087;-68
2022/01/15 07:09:06;;;;;;;30.25;12.50;;;;;;;;;;5008146;28;20026;-68
2022/01/15 07:11:31;;;;;;;12.15;5.40;;;;;;;;;;5008190;28;20025;-68
2022/01/15 07:13:57;;;;;;;7.90;4.25;;;;;;;;;;5004730;28;20029;-67
2022/01/15 07:16:22;;;;;;;20.80;8.43;;;;;;;;;;5001636;28;20072;-68
2022/01/15 07:18:47;;;;;;;17.85;8.55;;;;;;;;;;5006417;28;20100;-68
2022/01/15 07:21:13;;;;;;;14.57;6.45;;;;;;;;;;5008578;28;20040;-68
2022/01/15 07:23:38;;;;;;;30.25;13.05;;;;;;;;;;5008169;28;20018;-67
2022/01/15 07:26:03;;;;;;;20.98;8.52;;;;;;;;;;5008597;28;20033;-68
2022/01/15 07:28:30;;;;;;;14.10;6.22;;;;;;;;;;5009035;28;20363;-67
2022/01/15 07:30:56;;;;;;;22.67;6.90;;;;;;;;;;5010631;28;20034;-67
2022/01/15 07:33:21;;;;;;;14.98;7.00;;;;;;;;;;5022593;28;20025;-67
2022/01/15 07:35:46;;;;;;;28.80;11.30;;;;;;;;;;5015473;28;20036;-68
2022/01/15 07:38:16;;;;;;;20.27;6.63;;;;;;;;;;5009084;28;20025;-67
2022/01/15 07:40:41;;;;;;;28.23;11.20;;;;;;;;;;5010320;28;20018;-67
2022/01/15 07:43:06;;;;;;;18.25;8.05;;;;;;;;;;5010740;28;20038;-67
2022/01/15 07:45:31;;;;;;;10.05;4.60;;;;;;;;;;5013168;28;20083;-67
2022/01/15 07:47:57;;;;;;;16.90;8.35;;;;;;;;;;5010079;28;20076;-67
2022/01/15 07:50:25;;;;;;;7.90;4.53;;;;;;;;;;5011777;28;20084;-67
2022/01/15 07:52:54;;;;;;;14.38;5.95;;;;;;;;;;5014448;28;20289;-67
2022/01/15 07:55:19;;;;;;;16.23;7.68;;;;;;;;;;5008619;28;20036;-68
2022/01/15 07:57:45;;;;;;;22.80;10.68;;;;;;;;;;5013341;28;20085;-67
2022/01/15 08:00:11;;;;;;;15.30;7.50;;;;;;;;;;5017850;28;20030;-67
2022/01/15 08:02:36;;;;;;;23.20;11.00;;;;;;;;;;5013779;28;20022;-67
2022/01/15 08:05:02;;;;;;;15.48;6.75;;;;;;;;;;5005999;28;20071;-67
2022/01/15 08:07:27;;;;;;;15.13;5.68;;;;;;;;;;5008980;28;20030;-67
2022/01/15 08:09:52;;;;;;;17.95;7.50;;;;;;;;;;5007939;28;20034;-67
2022/01/15 08:12:19;;;;;;;20.63;8.88;;;;;;;;;;5013995;28;20029;-67
2022/01/15 08:14:44;;;;;;;9.98;4.68;;;;;;;;;;5016314;28;20018;-67
2022/01/15 08:17:10;;;;;;;16.40;6.88;;;;;;;;;;5013552;28;20032;-67
2022/01/15 08:19:35;;;;;;;13.88;5.68;;;;;;;;;;5014952;28;20351;-67
2022/01/15 08:22:00;;;;;;;25.08;10.63;;;;;;;;;;5018735;28;20067;-67
2022/01/15 08:24:25;;;;;;;17.33;6.72;;;;;;;;;;5011796;28;20065;-67
2022/01/15 08:26:52;;;;;;;8.05;4.18;;;;;;;;;;5010799;28;20104;-67
2022/01/15 08:29:17;;;;;;;15.30;6.35;;;;;;;;;;5018063;28;20579;-67
2022/01/15 08:31:42;;;;;;;9.73;3.90;;;;;;;;;;5010955;28;20022;-68
2022/01/15 08:34:07;;;;;;;19.27;9.48;;;;;;;;;;5010939;28;20029;-67
2022/01/15 08:36:36;;;;;;;11.80;5.72;;;;;;;;;;5009749;28;20021;-67
2022/01/15 08:39:02;;;;;;;22.35;9.10;;;;;;;;;;5010625;28;20117;-67
2022/01/15 08:41:27;;;;;;;7.50;4.60;;;;;;;;;;5016073;28;20570;-67
2022/01/15 08:43:53;;;;;;;12.48;6.57;;;;;;;;;;5011929;28;20149;-67
2022/01/15 08:46:19;;;;;;;11.60;5.75;;;;;;;;;;5014897;28;20057;-67
2022/01/15 08:48:45;;;;;;;12.38;5.80;;;;;;;;;;5011028;28;20489;-67
2022/01/15 08:51:10;;;;;;;17.00;6.15;;;;;;;;;;5020481;28;20029;-68
2022/01/15 08:53:35;;;;;;;12.00;5.32;;;;;;;;;;5023921;28;20033;-67
2022/01/15 08:56:00;;;;;;;15.40;6.15;;;;;;;;;;5009031;28;20034;-67
2022/01/15 08:58:27;;;;;;;16.00;6.67;;;;;;;;;;5013765;28;20447;-66
2022/01/15 09:00:54;;;;;;;12.98;6.05;;;;;;;;;;5012674;28;20277;-66
2022/01/15 09:03:20;;;;;;;23.30;8.35;;;;;;;;;;5011601;28;20499;-67
2022/01/15 09:05:45;;;;;;;17.85;5.18;;;;;;;;;;5011695;28;20040;-67
2022/01/15 09:08:10;;;;;;;17.85;5.97;;;;;;;;;;5012106;28;20475;-68
2022/01/15 09:10:41;;;;;;;8.60;3.28;;;;;;;;;;5011763;28;20033;-67
2022/01/15 09:13:06;;;;;;;10.88;4.57;;;;;;;;;;5010700;28;20029;-68
2022/01/15 09:15:32;;;;;;;21.35;6.28;;;;;;;;;;5013497;28;20035;-67
2022/01/15 09:17:57;;;;;;;7.65;3.80;;;;;;;;;;5023655;28;20080;-67
2022/01/15 09:20:22;;;;;;;18.17;8.10;;;;;;;;;;5012726;28;20026;-67
2022/01/15 09:22:47;;;;;;;22.33;9.43;;;;;;;;;;5010443;28;20017;-68
2022/01/15 09:25:12;;;;;;;21.77;8.00;;;;;;;;;;5018014;28;20041;-68
2022/01/15 09:30:22;;;;;;;11.48;5.18;;;;;;;;;;5010113;28;20510;-67
2022/01/15 09:32:49;;;;;;;7.65;3.95;;;;;;;;;;5012696;28;20026;-67
2022/01/15 09:35:15;;;;;;;13.20;5.22;;;;;;;;;;5011278;28;20033;-67
2022/01/15 09:37:41;;;;;;;18.92;8.27;;;;;;;;;;5018275;28;20085;-67
2022/01/15 09:40:08;;;;;;;10.25;4.72;;;;;;;;;;5010580;28;20106;-67
2022/01/15 09:42:34;;;;;;;13.40;6.18;;;;;;;;;;5011004;28;20079;-67
2022/01/15 09:45:02;;;;;;;12.90;5.90;;;;;;;;;;5010574;28;20029;-68
2022/01/15 09:47:27;;;;;;;17.90;6.93;;;;;;;;;;5007725;28;20068;-67
2022/01/15 09:49:53;;;;;;;14.82;5.43;;;;;;;;;;5044128;28;20030;-68
2022/01/15 09:52:18;;;;;;;14.90;5.90;;;;;;;;;;5013600;28;20025;-68
2022/01/15 09:54:44;;;;;;;13.00;6.03;;;;;;;;;;5012294;28;20030;-68
2022/01/15 09:57:09;;;;;;;12.80;5.05;;;;;;;;;;5023681;28;20018;-68
2022/01/15 09:59:35;;;;;;;13.48;5.53;;;;;;;;;;5012982;28;20513;-67
2022/01/15 10:02:03;;;;;;;14.90;5.30;;;;;;;;;;5020878;28;20018;-68
2022/01/15 10:04:31;;;;;;;14.73;6.10;;;;;;;;;;5030809;28;20501;-68
2022/01/15 10:07:05;;;;;;;13.77;5.90;;;;;;;;;;5018685;28;20108;-68
2022/01/15 10:09:31;;;;;;;15.18;6.35;;;;;;;;;;5021652;28;20018;-68
2022/01/15 10:11:56;;;;;;;16.30;7.10;;;;;;;;;;5023920;28;20052;-68
2022/01/15 10:14:25;;;;;;;9.85;4.28;;;;;;;;;;5005351;28;20026;-68
2022/01/15 10:16:51;;;;;;;7.27;3.43;;;;;;;;;;5011662;28;20053;-68
2022/01/15 10:19:25;;;;;;;19.02;8.15;;;;;;;;;;5010459;28;20041;-68
2022/01/15 10:22:04;;;;;;;17.42;7.63;;;;;;;;;;5006577;28;20525;-68
2022/01/15 10:24:29;;;;;;;11.27;4.00;;;;;;;;;;5008460;28;20121;-68
2022/01/15 10:26:54;;;;;;;13.05;4.40;;;;;;;;;;5011133;28;20526;-68
2022/01/15 10:29:20;;;;;;;8.13;4.55;;;;;;;;;;5011812;28;20025;-68
2022/01/15 10:31:45;;;;;;;17.90;8.45;;;;;;;;;;5026870;28;20499;-68
2022/01/15 10:34:24;;;;;;;3.92;1.92;;;;;;;;;;5018581;28;20426;-68
2022/01/15 10:36:49;;;;;;;14.63;6.63;;;;;;;;;;5010638;28;20017;-68
2022/01/15 10:39:16;;;;;;;12.43;4.32;;;;;;;;;;5011156;28;20406;-68
2022/01/15 10:41:41;;;;;;;17.58;7.30;;;;;;;;;;5011516;28;20030;-68
2022/01/15 10:44:47;;;;;;;10.45;4.95;;;;;;;;;;5012057;28;20133;-68
2022/01/15 10:47:13;;;;;;;15.45;6.72;;;;;;;;;;4987912;28;20034;-67
2022/01/15 10:49:39;;;;;;;8.07;4.95;;;;;;;;;;4987800;28;20030;-68
2022/01/15 10:52:09;;;;;;;16.92;6.53;;;;;;;;;;4990276;28;20042;-68
2022/01/15 10:54:48;;;;;;;15.73;7.22;;;;;;;;;;5002528;28;20430;-67
2022/01/15 10:57:13;;;;;;;5.25;3.13;;;;;;;;;;5010855;28;20030;-68
2022/01/15 10:59:38;;;;;;;7.82;4.50;;;;;;;;;;5011059;28;20076;-68
2022/01/15 11:02:17;;;;;;;18.63;7.13;;;;;;;;;;5008107;28;20076;-67
2022/01/15 11:04:42;;;;;;;14.77;7.57;;;;;;;;;;5011193;28;20046;-67
2022/01/15 11:07:11;;;;;;;13.32;4.72;;;;;;;;;;5009132;28;20065;-68
2022/01/15 11:09:37;;;;;;;11.50;5.55;;;;;;;;;;5011522;28;20026;-67
2022/01/15 11:12:02;;;;;;;12.07;5.35;;;;;;;;;;5010917;28;20437;-67
2022/01/15 11:14:27;;;;;;;11.98;6.22;;;;;;;;;;5010733;28;20018;-68
2022/01/15 11:16:54;;;;;;;13.50;6.00;;;;;;;;;;5010814;28;20657;-67
2022/01/15 11:19:20;;;;;;;16.85;8.10;;;;;;;;;;5010903;28;20514;-67
2022/01/15 11:21:45;;;;;;;14.90;6.63;;;;;;;;;;5009211;28;20097;-67
2022/01/15 11:24:10;;;;;;;14.07;7.55;;;;;;;;;;5011220;28;20102;-67
2022/01/15 11:26:37;;;;;;;15.40;7.53;;;;;;;;;;5011156;28;20615;-67
2022/01/15 11:29:02;;;;;;;16.67;8.23;;;;;;;;;;5011020;28;20020;-67
2022/01/15 11:31:32;;;;;;;7.15;4.35;;;;;;;;;;5011111;28;20026;-68
2022/01/15 11:33:59;;;;;;;10.38;5.32;;;;;;;;;;5010472;28;20025;-68
2022/01/15 11:36:43;;;;;;;11.48;4.55;;;;;;;;;;5012238;28;20470;-67
2022/01/15 11:39:38;;;;;;;17.60;7.68;;;;;;;;;;5010031;28;20022;-68
2022/01/15 11:42:04;;;;;;;7.70;4.18;;;;;;;;;;5005041;28;20503;-68
2022/01/15 11:44:29;;;;;;;9.23;4.15;;;;;;;;;;5010759;28;21859;-68
2022/01/15 11:46:56;;;;;;;11.63;5.10;;;;;;;;;;5010616;28;20096;-68
2022/01/15 11:49:25;;;;;;;7.30;3.22;;;;;;;;;;5009272;28;20261;-68
2022/01/15 11:51:51;;;;;;;16.75;7.50;;;;;;;;;;5018692;28;20108;-68
2022/01/15 11:54:16;;;;;;;7.82;3.65;;;;;;;;;;5013704;28;20109;-68
2022/01/15 11:56:46;;;;;;;9.05;4.45;;;;;;;;;;5009948;28;20025;-68
2022/01/15 11:59:23;;;;;;;7.50;3.53;;;;;;;;;;5010304;28;20010;-68
2022/01/15 12:01:49;;;;;;;15.38;7.53;;;;;;;;;;5010376;28;20022;-68
2022/01/15 12:04:24;;;;;;;14.35;6.88;;;;;;;;;;5010589;28;20029;-68
2022/01/15 12:07:01;;;;;;;14.68;8.45;;;;;;;;;;5010663;28;20049;-68
2022/01/15 12:09:40;;;;;;;13.73;6.45;;;;;;;;;;5010447;28;20024;-67
2022/01/15 12:12:17;;;;;;;8.30;4.78;;;;;;;;;;5009904;28;20038;-68
2022/01/15 12:14:46;;;;;;;13.68;7.22;;;;;;;;;;5010249;28;20538;-67
2022/01/15 12:17:24;;;;;;;16.92;8.55;;;;;;;;;;5010488;28;20046;-67
2022/01/15 12:19:53;;;;;;;7.18;3.20;;;;;;;;;;5010251;28;20022;-68
2022/01/15 12:22:36;;;;;;;14.57;7.32;;;;;;;;;;5009860;28;20029;-68
2022/01/15 12:25:03;;;;;;;7.57;4.43;;;;;;;;;;5009512;28;20541;-68
2022/01/15 12:27:29;;;;;;;16.80;7.78;;;;;;;;;;5009092;28;20386;-69
2022/01/15 12:30:14;;;;;;;13.73;6.20;;;;;;;;;;5009970;28;20034;-68
2022/01/15 12:32:42;;;;;;;12.55;6.97;;;;;;;;;;5010071;28;20335;-69
2022/01/15 12:35:14;;;;;;;14.48;6.28;;;;;;;;;;5007347;28;20018;-68
2022/01/15 12:37:50;;;;;;;16.63;8.63;;;;;;;;;;5009248;28;20026;-68
2022/01/15 12:40:15;;;;;;;7.47;4.43;;;;;;;;;;5009529;28;20024;-68
2022/01/15 12:42:40;;;;;;;11.27;4.28;;;;;;;;;;5009162;28;20026;-68
2022/01/15 12:45:05;;;;;;;16.63;7.85;;;;;;;;;;5009936;28;20018;-68
2022/01/15 12:47:41;;;;;;;15.65;6.50;;;;;;;;;;5009988;28;20395;-68
2022/01/15 12:50:06;;;;;;;11.50;5.60;;;;;;;;;;5009444;28;20036;-68
2022/01/15 12:52:31;;;;;;;19.40;7.45;;;;;;;;;;5010179;28;20026;-68
2022/01/15 12:55:00;;;;;;;14.90;7.23;;;;;;;;;;5008105;28;20529;-67
2022/01/15 12:57:58;;;;;;;13.88;7.80;;;;;;;;;;5014248;28;20744;-67
2022/01/15 13:00:27;;;;;;;17.17;6.90;;;;;;;;;;5001401;28;20046;-67
2022/01/15 13:02:53;;;;;;;13.02;7.03;;;;;;;;;;4993611;28;20022;-67
2022/01/15 13:05:18;;;;;;;10.27;4.93;;;;;;;;;;4993268;28;20025;-67
2022/01/15 13:07:48;;;;;;;10.48;5.05;;;;;;;;;;5003197;28;20030;-67
2022/01/15 13:10:25;;;;;;;10.20;3.90;;;;;;;;;;5011702;28;20205;-68
2022/01/15 13:12:50;;;;;;;11.90;5.80;;;;;;;;;;5008146;28;20168;-68
2022/01/15 13:15:22;;;;;;;13.73;6.53;;;;;;;;;;5044995;28;20512;-68
2022/01/15 13:17:48;;;;;;;12.45;5.95;;;;;;;;;;5013282;28;20021;-67
2022/01/15 13:20:30;;;;;;;7.88;4.03;;;;;;;;;;5011935;28;20378;-67
2022/01/15 13:22:55;;;;;;;16.70;8.07;;;;;;;;;;4994045;28;20026;-67
2022/01/15 13:25:21;;;;;;;11.95;5.60;;;;;;;;;;4993669;28;20375;-67
2022/01/15 13:27:46;;;;;;;10.68;5.93;;;;;;;;;;5008633;28;20021;-67
2022/01/15 13:30:11;;;;;;;20.17;6.80;;;;;;;;;;5012125;28;20026;-68
2022/01/15 13:32:36;;;;;;;15.60;8.73;;;;;;;;;;5013207;28;20030;-68
2022/01/15 13:35:12;;;;;;;14.20;5.73;;;;;;;;;;5016149;28;20020;-67
2022/01/15 13:37:48;;;;;;;14.85;7.30;;;;;;;;;;5012394;28;20603;-67
2022/01/15 13:40:24;;;;;;;13.40;6.13;;;;;;;;;;5013462;28;20026;-68
2022/01/15 13:42:50;;;;;;;8.45;3.50;;;;;;;;;;5013256;28;20029;-67
2022/01/15 13:45:15;;;;;;;13.18;5.35;;;;;;;;;;5013018;28;20026;-67
2022/01/15 13:47:40;;;;;;;21.08;5.32;;;;;;;;;;5012423;28;20497;-67
2022/01/15 13:53:05;;;;;;;5.53;3.00;;;;;;;;;;5005957;28;20025;-68
2022/01/15 13:55:30;;;;;;;8.63;4.40;;;;;;;;;;5012104;28;20065;-68
2022/01/15 13:58:08;;;;;;;8.80;4.18;;;;;;;;;;5009261;28;20021;-68
2022/01/15 14:00:33;;;;;;;13.93;5.53;;;;;;;;;;5008754;28;20041;-67
2022/01/15 14:03:02;;;;;;;6.60;3.40;;;;;;;;;;5015275;28;20014;-68
2022/01/15 14:05:27;;;;;;;12.23;6.55;;;;;;;;;;5021543;28;20037;-68
2022/01/15 14:07:53;;;;;;;8.70;4.18;;;;;;;;;;5012327;28;20022;-68
2022/01/15 14:10:19;;;;;;;13.45;5.88;;;;;;;;;;5015626;28;20029;-68
2022/01/15 14:12:44;;;;;;;11.82;5.18;;;;;;;;;;5014788;28;20062;-68
2022/01/15 14:15:13;;;;;;;10.50;4.57;;;;;;;;;;5011619;28;20021;-68
2022/01/15 14:17:43;;;;;;;11.52;4.97;;;;;;;;;;5011854;28;20016;-68
2022/01/15 14:22:41;;;;;;;11.10;5.00;;;;;;;;;;5009809;28;20534;-68
2022/01/15 14:25:16;;;;;;;9.50;4.70;;;;;;;;;;5010356;28;20775;-68
2022/01/15 14:27:41;;;;;;;12.13;5.15;;;;;;;;;;5010360;28;20120;-68
2022/01/15 14:30:07;;;;;;;6.57;2.88;;;;;;;;;;5009415;28;20176;-68
2022/01/15 14:32:32;;;;;;;10.25;4.57;;;;;;;;;;5011545;28;20109;-67
2022/01/15 14:34:58;;;;;;;11.13;4.05;;;;;;;;;;5011598;28;20022;-68
2022/01/15 14:37:24;;;;;;;10.35;4.22;;;;;;;;;;5009954;28;20380;-67
2022/01/15 14:39:49;;;;;;;6.10;3.42;;;;;;;;;;5011159;28;20528;-68
2022/01/15 14:42:15;;;;;;;9.18;4.45;;;;;;;;;;5011395;28;20033;-68
2022/01/15 14:44:43;;;;;;;9.73;4.45;;;;;;;;;;5010490;28;20068;-68
2022/01/15 14:47:09;;;;;;;11.45;5.70;;;;;;;;;;5002996;28;20022;-68
2022/01/15 14:49:34;;;;;;;14.25;6.80;;;;;;;;;;5005766;28;20044;-68
2022/01/15 14:51:59;;;;;;;6.85;2.97;;;;;;;;;;5011470;28;20467;-68
2022/01/15 14:54:24;;;;;;;5.53;2.83;;;;;;;;;;5006919;28;20033;-68
2022/01/15 14:56:49;;;;;;;15.30;6.85;;;;;;;;;;5007396;28;20021;-68